createdAt,value
2022-12-05T00:01:42.696Z,101822.91
2022-12-05T00:04:15.231Z,101823.75
2022-12-05T00:06:44.252Z,101837.66
2022-12-05T00:09:13.006Z,101831.63
2022-12-05T00:11:42.728Z,101836.09
2022-12-05T00:14:11.854Z,101824.97
2022-12-05T00:16:40.379Z,101824.91
2022-12-05T00:19:09.230Z,101817.16
2022-12-05T00:21:37.666Z,101822.28
2022-12-05T00:24:56.201Z,101828.44
2022-12-05T00:27:23.204Z,101823.34
2022-12-05T00:29:50.268Z,101823.41
2022-12-05T00:32:17.327Z,101826.03
2022-12-05T00:34:44.465Z,101814.91
2022-12-05T00:37:11.467Z,101824.41
2022-12-05T00:39:41.444Z,101821.78
2022-12-05T00:42:08.430Z,101811.44
2022-12-05T00:44:35.389Z,101805.25
2022-12-05T00:47:02.377Z,101814.97
2022-12-05T00:49:29.351Z,101804.91
2022-12-05T00:52:16.345Z,101797.66
2022-12-05T00:54:43.569Z,101799.44
2022-12-05T00:57:10.498Z,101794.63
2022-12-05T00:59:37.454Z,101800.78
2022-12-05T01:02:04.433Z,101793.84
2022-12-05T01:04:31.467Z,101806.97
2022-12-05T01:06:58.919Z,101802.63
2022-12-05T01:09:26.829Z,101793.22
2022-12-05T01:11:54.040Z,101791.28
2022-12-05T01:14:23.291Z,101793.22
2022-12-05T01:16:53.922Z,101790.81
2022-12-05T01:19:23.823Z,101782.09
2022-12-05T01:21:51.640Z,101777.84
2022-12-05T01:24:20.253Z,101776.75
2022-12-05T01:26:47.831Z,101772.22
2022-12-05T01:29:18.311Z,101760.09
2022-12-05T01:31:45.870Z,101761.88
2022-12-05T01:34:15.923Z,101757.47
2022-12-05T01:36:43.524Z,101749.75
2022-12-05T01:39:12.049Z,101747.84
2022-12-05T01:41:45.683Z,101748.13
2022-12-05T01:44:12.777Z,101751.47
2022-12-05T01:46:51.001Z,101743.72
2022-12-05T01:49:28.862Z,101749.13
2022-12-05T01:52:01.597Z,101746.50
2022-12-05T01:54:30.236Z,101744.84
2022-12-05T01:57:02.150Z,101742.09
2022-12-05T01:59:34.525Z,101735.09
2022-12-05T02:02:02.240Z,101755.06
2022-12-05T02:04:29.275Z,101746.44
2022-12-05T02:06:58.303Z,101751.75
2022-12-05T02:09:25.197Z,101735.19
2022-12-05T02:11:57.424Z,101756.84
2022-12-05T02:14:27.256Z,101742.88
2022-12-05T02:17:03.359Z,101738.41
2022-12-05T02:19:51.525Z,101741.97
2022-12-05T02:22:41.392Z,101740.13
2022-12-05T02:26:18.801Z,101730.53
2022-12-05T02:29:11.360Z,101731.63
2022-12-05T02:31:57.556Z,101748.31
2022-12-05T02:34:24.567Z,101727.34
2022-12-05T02:37:02.100Z,101727.47
2022-12-05T02:39:54.859Z,101723.94
2022-12-05T02:42:51.464Z,101724.78
2022-12-05T02:45:21.535Z,101710.03
2022-12-05T02:47:52.427Z,101715.16
2022-12-05T02:50:25.153Z,101715.28
2022-12-05T02:52:56.790Z,101724.94
2022-12-05T02:55:27.052Z,101709.38
2022-12-05T02:57:58.633Z,101719.09
2022-12-05T03:00:25.894Z,101701.66
2022-12-05T03:02:58.595Z,101696.34
2022-12-05T03:05:51.581Z,101702.50
2022-12-05T03:08:23.626Z,101698.47
2022-12-05T03:10:53.443Z,101687.06
2022-12-05T03:13:30.208Z,101688.06
2022-12-05T03:16:03.157Z,101703.72
2022-12-05T03:18:35.312Z,101689.84
2022-12-05T03:21:22.586Z,101704.72
2022-12-05T03:24:01.622Z,101693.53
2022-12-05T03:26:34.627Z,101691.81
2022-12-05T03:29:52.968Z,101691.91
2022-12-05T03:32:28.943Z,101691.09
2022-12-05T03:34:56.285Z,101692.94
2022-12-05T03:37:58.479Z,101681.59
2022-12-05T03:40:40.639Z,101681.69
2022-12-05T03:43:23.668Z,101674.88
2022-12-05T03:46:01.309Z,101673.19
2022-12-05T03:48:36.045Z,101664.59
2022-12-05T03:51:07.321Z,101666.25
2022-12-05T03:54:14.123Z,101664.53
2022-12-05T03:56:46.476Z,101664.47
2022-12-05T03:59:36.022Z,101678.56
2022-12-05T04:02:11.265Z,101660.44
2022-12-05T04:04:47.752Z,101663.19
2022-12-05T04:07:16.962Z,101655.41
2022-12-05T04:09:59.371Z,101650.31
2022-12-05T04:12:30.299Z,101649.25
2022-12-05T04:15:06.511Z,101646.69
2022-12-05T04:18:09.657Z,101657.19
2022-12-05T04:21:00.128Z,101656.34
2022-12-05T04:23:28.428Z,101651.22
2022-12-05T04:26:17.813Z,101647.03
2022-12-05T04:29:11.262Z,101636.75
2022-12-05T04:31:44.173Z,101637.53
2022-12-05T04:34:14.505Z,101640.09
2022-12-05T04:36:57.776Z,101638.47
2022-12-05T04:39:37.729Z,101623.81
2022-12-05T04:42:08.957Z,101629.50
2022-12-05T04:44:46.642Z,101625.94
2022-12-05T04:47:18.753Z,101629.69
2022-12-05T04:49:52.204Z,101619.00
2022-12-05T04:52:22.260Z,101619.00
2022-12-05T04:54:49.096Z,101622.53
2022-12-05T04:57:50.585Z,101619.06
2022-12-05T05:00:17.919Z,101607.72
2022-12-05T05:02:56.303Z,101610.50
2022-12-05T05:05:23.714Z,101613.97
2022-12-05T05:07:53.914Z,101611.34
2022-12-05T05:10:33.436Z,101607.94
2022-12-05T05:13:05.453Z,101601.72
2022-12-05T05:15:32.502Z,101612.19
2022-12-05T05:17:59.387Z,101606.09
2022-12-05T05:20:27.566Z,101610.56
2022-12-05T05:22:56.654Z,101614.88
2022-12-05T05:25:24.983Z,101627.97
2022-12-05T05:27:53.827Z,101621.75
2022-12-05T05:30:23.292Z,101622.53
2022-12-05T05:32:50.468Z,101621.56
2022-12-05T05:35:17.976Z,101618.78
2022-12-05T05:37:46.130Z,101613.47
2022-12-05T05:40:21.113Z,101613.47
2022-12-05T05:42:50.927Z,101605.41
2022-12-05T05:45:18.316Z,101597.38
2022-12-05T05:47:50.006Z,101590.38
2022-12-05T05:50:21.502Z,101604.94
2022-12-05T05:52:49.895Z,101582.97
2022-12-05T05:55:17.087Z,101590.63
2022-12-05T05:57:44.236Z,101593.97
2022-12-05T06:00:12.705Z,101598.06
2022-12-05T06:02:45.073Z,101592.81
2022-12-05T06:05:12.234Z,101598.75
2022-12-05T06:07:39.352Z,101595.22
2022-12-05T06:10:16.257Z,101596.84
2022-12-05T06:12:43.235Z,101590.59
2022-12-05T06:15:10.873Z,101591.44
2022-12-05T06:17:40.361Z,101592.09
2022-12-05T06:20:08.596Z,101597.19
2022-12-05T06:22:35.676Z,101597.88
2022-12-05T06:25:02.746Z,101588.97
2022-12-05T06:27:33.798Z,101584.34
2022-12-05T06:30:01.313Z,101575.31
2022-12-05T06:32:33.735Z,101582.94
2022-12-05T06:35:01.004Z,101587.09
2022-12-05T06:37:28.486Z,101592.19
2022-12-05T06:39:55.544Z,101588.63
2022-12-05T06:42:22.845Z,101586.72
2022-12-05T06:44:49.816Z,101584.03
2022-12-05T06:47:19.976Z,101590.75
2022-12-05T06:49:47.101Z,101589.66
2022-12-05T06:52:14.092Z,101582.47
2022-12-05T06:54:47.058Z,101573.56
2022-12-05T06:57:19.086Z,101568.94
2022-12-05T06:59:46.080Z,101565.22
2022-12-05T07:02:14.006Z,101576.50
2022-12-05T07:04:41.304Z,101599.34
2022-12-05T07:07:09.474Z,101589.00
2022-12-05T07:09:54.548Z,101583.16
2022-12-05T07:12:24.043Z,101574.59
2022-12-05T07:14:51.490Z,101577.13
2022-12-05T07:17:19.996Z,101580.38
2022-12-05T07:19:51.175Z,101580.38
2022-12-05T07:22:19.254Z,101586.00
2022-12-05T07:24:49.643Z,101576.97
2022-12-05T07:27:20.551Z,101569.69
2022-12-05T07:29:51.506Z,101571.22
2022-12-05T07:32:18.634Z,101568.41
2022-12-05T07:34:46.184Z,101567.41
2022-12-05T07:37:14.720Z,101562.84
2022-12-05T07:39:41.937Z,101576.50
2022-12-05T07:42:09.105Z,101556.19
2022-12-05T07:44:36.440Z,101563.72
2022-12-05T07:47:03.784Z,101553.13
2022-12-05T07:49:35.720Z,101546.25
2022-12-05T07:52:02.839Z,101551.00
2022-12-05T07:54:33.220Z,101548.00
2022-12-05T07:57:00.299Z,101556.47
2022-12-05T07:59:27.383Z,101550.94
2022-12-05T08:01:57.206Z,101549.66
2022-12-05T08:04:24.335Z,101544.75
2022-12-05T08:06:51.295Z,101542.19
2022-12-05T08:09:18.971Z,101536.44
2022-12-05T08:11:51.070Z,101517.13
2022-12-05T08:14:19.688Z,101536.78
2022-12-05T08:16:46.738Z,101535.84
2022-12-05T08:19:14.252Z,101520.25
2022-12-05T08:21:44.439Z,101534.25
2022-12-05T08:24:11.557Z,101525.94
2022-12-05T08:26:39.509Z,101509.72
2022-12-05T08:29:11.443Z,101512.78
2022-12-05T08:31:47.619Z,101541.09
2022-12-05T08:34:16.216Z,101510.09
2022-12-05T08:36:43.568Z,101510.69
2022-12-05T08:39:15.183Z,101502.16
2022-12-05T08:41:46.514Z,101501.69
2022-12-05T08:44:18.748Z,101500.13
2022-12-05T08:46:49.394Z,101493.41
2022-12-05T08:49:17.442Z,101501.47
2022-12-05T08:51:49.263Z,101503.50
2022-12-05T08:54:16.623Z,101501.72
2022-12-05T08:56:43.953Z,101506.59
2022-12-05T08:59:11.421Z,101492.78
2022-12-05T09:01:39.469Z,101488.72
2022-12-05T09:04:07.814Z,101490.78
2022-12-05T09:06:39.419Z,101482.56
2022-12-05T09:09:11.483Z,101480.63
2022-12-05T09:11:49.075Z,101477.69
2022-12-05T09:14:16.995Z,101480.88
2022-12-05T09:16:47.957Z,101471.47
2022-12-05T09:19:25.011Z,101472.22
2022-12-05T09:21:52.145Z,101463.13
2022-12-05T09:24:20.046Z,101459.81
2022-12-05T09:26:49.359Z,101462.72
2022-12-05T09:29:18.041Z,101453.88
2022-12-05T09:31:47.963Z,101459.91
2022-12-05T09:34:15.473Z,101460.28
2022-12-05T09:36:43.132Z,101443.88
2022-12-05T09:39:13.247Z,101444.50
2022-12-05T09:42:08.159Z,101440.53
2022-12-05T09:44:53.619Z,101432.16
2022-12-05T09:47:34.993Z,101426.97
2022-12-05T09:51:01.730Z,101433.94
2022-12-05T09:53:49.542Z,101446.19
2022-12-05T09:56:31.094Z,101401.50
2022-12-05T09:59:00.994Z,101387.38
2022-12-05T10:01:42.589Z,101404.00
2022-12-05T10:04:12.847Z,101411.09
2022-12-05T10:07:07.443Z,101411.63
2022-12-05T10:09:52.783Z,101406.25
2022-12-05T10:12:44.311Z,101418.19
2022-12-05T10:15:31.098Z,101398.75
2022-12-05T10:18:35.197Z,101396.13
2022-12-05T10:21:51.272Z,101396.91
2022-12-05T10:24:33.066Z,101396.91
2022-12-05T10:27:06.530Z,101392.34
2022-12-05T10:29:33.599Z,101386.13
2022-12-05T10:32:52.372Z,101386.78
2022-12-05T10:35:27.821Z,101382.66
2022-12-05T10:38:04.088Z,101379.16
2022-12-05T10:40:38.470Z,101376.91
2022-12-05T10:43:12.282Z,101367.31
2022-12-05T10:45:48.412Z,101384.00
2022-12-05T10:48:18.348Z,101382.03
2022-12-05T10:50:48.729Z,101390.38
2022-12-05T10:53:21.268Z,101391.53
2022-12-05T10:56:28.150Z,101370.53
2022-12-05T10:58:38.296Z,101388.03
2022-12-05T11:01:14.330Z,101385.03
2022-12-05T11:03:43.642Z,101394.25
2022-12-05T11:06:19.286Z,101382.66
2022-12-05T11:09:09.764Z,101379.38
2022-12-05T11:11:37.213Z,101376.06
2022-12-05T11:14:07.311Z,101379.75
2022-12-05T11:16:39.483Z,101379.97
2022-12-05T11:19:22.010Z,101377.53
2022-12-05T11:21:50.303Z,101377.75
2022-12-05T11:24:29.198Z,101378.81
2022-12-05T11:27:20.132Z,101358.00
2022-12-05T11:30:00.959Z,101366.13
2022-12-05T11:32:34.186Z,101362.00
2022-12-05T11:35:13.775Z,101356.28
2022-12-05T11:37:47.883Z,101363.75
2022-12-05T11:40:30.080Z,101365.09
2022-12-05T11:43:25.351Z,101365.84
2022-12-05T11:45:57.607Z,101357.38
2022-12-05T11:48:43.985Z,101343.47
2022-12-05T11:51:31.206Z,101349.84
2022-12-05T11:57:51.852Z,101339.94
2022-12-05T12:00:25.961Z,101335.81
2022-12-05T12:03:32.586Z,101324.72
2022-12-05T12:06:24.846Z,101318.59
2022-12-05T12:09:06.887Z,101312.50
2022-12-05T12:11:43.335Z,101317.03
2022-12-05T12:14:29.025Z,101310.06
2022-12-05T12:17:02.049Z,101304.78
2022-12-05T12:19:37.442Z,101280.38
2022-12-05T12:22:24.645Z,101297.84
2022-12-05T12:25:25.482Z,101305.00
2022-12-05T12:28:29.419Z,101289.38
2022-12-05T12:31:30.490Z,101281.88
2022-12-05T12:34:28.037Z,101282.47
2022-12-05T12:37:22.679Z,101280.69
2022-12-05T12:40:01.443Z,101286.34
2022-12-05T12:42:38.458Z,101281.19
2022-12-05T12:45:26.576Z,101283.91
2022-12-05T12:47:56.506Z,101281.47
2022-12-05T12:50:43.436Z,101276.56
2022-12-05T12:53:16.798Z,101280.34
2022-12-05T12:55:52.751Z,101282.97
2022-12-05T12:58:34.665Z,101277.91
2022-12-05T13:01:09.093Z,101277.28
2022-12-05T13:03:51.501Z,101271.16
2022-12-05T13:07:11.889Z,101267.69
2022-12-05T13:10:02.929Z,101262.63
2022-12-05T13:12:38.571Z,101264.69
2022-12-05T13:15:14.013Z,101258.69
2022-12-05T13:17:44.107Z,101263.75
2022-12-05T13:20:40.570Z,101262.91
2022-12-05T13:23:12.302Z,101262.06
2022-12-05T13:25:40.810Z,101259.63
2022-12-05T13:28:42.260Z,101255.97
2022-12-05T13:31:14.311Z,101254.28
2022-12-05T13:33:48.249Z,101239.59
2022-12-05T13:36:39.464Z,101248.06
2022-12-05T13:39:41.267Z,101255.97
2022-12-05T13:42:24.889Z,101253.31
2022-12-05T13:45:08.754Z,101242.69
2022-12-05T13:48:00.344Z,101231.03
2022-12-05T13:50:33.606Z,101241.22
2022-12-05T13:53:10.159Z,101230.09
2022-12-05T13:55:53.924Z,101234.72
2022-12-05T13:58:21.349Z,101225.69
2022-12-05T14:00:53.021Z,101221.28
2022-12-05T14:03:25.257Z,101230.09
2022-12-05T14:05:57.056Z,101230.00
2022-12-05T14:08:37.003Z,101218.47
2022-12-05T14:11:05.841Z,101224.47
2022-12-05T14:13:33.904Z,101204.38
2022-12-05T14:16:30.572Z,101217.53
2022-12-05T14:19:34.714Z,101201.97
2022-12-05T14:22:24.196Z,101206.19
2022-12-05T14:25:04.439Z,101203.25
2022-12-05T14:27:41.517Z,101218.22
2022-12-05T14:30:34.810Z,101208.53
2022-12-05T14:33:03.351Z,101212.41
2022-12-05T14:35:43.865Z,101192.94
2022-12-05T14:38:34.500Z,101193.38
2022-12-05T14:41:26.587Z,101179.91
2022-12-05T14:43:56.785Z,101180.84
2022-12-05T14:46:32.449Z,101186.03
2022-12-05T14:49:48.465Z,101178.22
2022-12-05T14:52:20.781Z,101175.78
2022-12-05T14:54:53.026Z,101164.41
2022-12-05T14:57:21.516Z,101161.88
2022-12-05T14:59:57.174Z,101171.56
2022-12-05T15:02:29.850Z,101168.09
2022-12-05T15:05:31.877Z,101159.34
2022-12-05T15:08:05.080Z,101166.41
2022-12-05T15:10:41.500Z,101158.41
2022-12-05T15:13:15.018Z,101154.84
2022-12-05T15:16:08.537Z,101162.72
2022-12-05T15:18:40.299Z,101145.16
2022-12-05T15:21:25.769Z,101143.38
2022-12-05T15:23:55.540Z,101145.25
2022-12-05T15:26:46.139Z,101139.25
2022-12-05T15:29:20.993Z,101148.72
2022-12-05T15:31:56.246Z,101166.31
2022-12-05T15:34:45.711Z,101137.56
2022-12-05T15:37:18.577Z,101137.66
2022-12-05T15:40:14.356Z,101148.28
2022-12-05T15:42:44.843Z,101135.34
2022-12-05T15:45:14.806Z,101132.69
2022-12-05T15:47:46.638Z,101131.03
2022-12-05T15:50:39.285Z,101133.66
2022-12-05T15:53:27.434Z,101129.88
2022-12-05T15:56:09.240Z,101114.06
2022-12-05T15:58:42.786Z,101117.66
2022-12-05T16:01:16.759Z,101112.59
2022-12-05T16:03:49.746Z,101113.44
2022-12-05T16:06:43.570Z,101120.69
2022-12-05T16:09:17.433Z,101113.75
2022-12-05T16:11:53.281Z,101118.38
2022-12-05T16:14:51.319Z,101108.00
2022-12-05T16:17:15.974Z,101100.31
2022-12-05T16:19:43.749Z,101106.44
2022-12-05T16:22:16.665Z,101103.78
2022-12-05T16:24:45.852Z,101116.13
2022-12-05T16:27:16.139Z,101094.31
2022-12-05T16:29:45.240Z,101079.59
2022-12-05T16:32:23.626Z,101085.47
2022-12-05T16:34:51.625Z,101090.66
2022-12-05T16:37:37.238Z,101077.47
2022-12-05T16:40:04.547Z,101083.06
2022-12-05T16:42:31.662Z,101082.22
2022-12-05T16:45:03.405Z,101089.16
2022-12-05T16:47:42.161Z,101082.31
2022-12-05T16:50:26.121Z,101085.16
2022-12-05T16:53:04.441Z,101078.94
2022-12-05T16:55:38.532Z,101094.72
2022-12-05T16:58:06.314Z,101073.13
2022-12-05T17:00:33.769Z,101090.41
2022-12-05T17:03:25.926Z,101073.13
2022-12-05T17:05:48.229Z,101053.88
2022-12-05T17:08:15.368Z,101061.69
2022-12-05T17:10:43.731Z,101055.47
2022-12-05T17:13:15.554Z,101029.06
2022-12-05T17:15:45.729Z,101058.75
2022-12-05T17:18:26.529Z,101079.59
2022-12-05T17:20:57.389Z,101058.44
2022-12-05T17:23:27.987Z,101051.78
2022-12-05T17:25:57.161Z,101039.16
2022-12-05T17:28:25.318Z,101051.38
2022-12-05T17:30:52.669Z,101050.22
2022-12-05T17:33:22.470Z,101039.69
2022-12-05T17:35:51.145Z,101032.75
2022-12-05T17:38:19.531Z,101035.50
2022-12-05T17:40:47.222Z,101035.59
2022-12-05T17:43:19.922Z,101040.75
2022-12-05T17:45:54.786Z,101042.22
2022-12-05T17:48:22.035Z,101050.78
2022-12-05T17:50:49.936Z,101045.22
2022-12-05T17:53:19.607Z,101055.84
2022-12-05T17:55:48.917Z,101059.22
2022-12-05T17:58:17.394Z,101049.84
2022-12-05T18:00:45.653Z,101073.22
2022-12-05T18:03:15.376Z,101060.81
2022-12-05T18:05:42.573Z,101082.69
2022-12-05T18:08:10.032Z,101057.31
2022-12-05T18:10:37.338Z,101071.13
2022-12-05T18:13:11.091Z,101051.66
2022-12-05T18:15:43.069Z,101057.53
2022-12-05T18:18:16.102Z,101057.00
2022-12-05T18:20:43.931Z,101051.75
2022-12-05T18:23:11.194Z,101064.91
2022-12-05T18:25:40.241Z,101051.97
2022-12-05T18:28:07.745Z,101055.63
2022-12-05T18:30:34.759Z,101053.13
2022-12-05T18:33:01.826Z,101046.38
2022-12-05T18:35:41.138Z,101029.91
2022-12-05T18:38:11.905Z,101029.19
2022-12-05T18:40:39.300Z,101026.75
2022-12-05T18:43:06.326Z,101027.91
2022-12-05T18:45:33.331Z,101026.53
2022-12-05T18:48:23.322Z,101021.47
2022-12-05T18:50:47.329Z,101016.31
2022-12-05T18:53:14.401Z,101014.63
2022-12-05T18:58:29.290Z,101005.69
2022-12-05T19:01:13.463Z,100999.38
2022-12-05T19:03:41.184Z,100984.53
2022-12-05T19:06:17.228Z,100985.50
2022-12-05T19:08:45.448Z,100989.06
2022-12-05T19:11:15.726Z,100975.91
2022-12-05T19:13:43.949Z,100986.25
2022-12-05T19:16:19.401Z,100957.91
2022-12-05T19:18:48.158Z,100988.88
2022-12-05T19:21:25.741Z,100972.50
2022-12-05T19:23:54.221Z,100991.44
2022-12-05T19:26:24.016Z,100981.97
2022-12-05T19:28:51.335Z,100988.28
2022-12-05T19:31:21.568Z,100981.78
2022-12-05T19:33:54.591Z,100980.00
2022-12-05T19:36:35.663Z,100989.47
2022-12-05T19:39:09.320Z,100962.63
2022-12-05T19:41:36.716Z,100976.00
2022-12-05T19:44:04.225Z,100980.72
2022-12-05T19:46:33.298Z,100989.63
2022-12-05T19:49:03.863Z,100956.69
2022-12-05T19:51:34.081Z,100972.56
2022-12-05T19:54:04.014Z,100965.41
2022-12-05T19:56:34.387Z,100953.63
2022-12-05T19:59:10.054Z,100935.53
2022-12-05T20:01:40.834Z,100955.50
2022-12-05T20:04:11.198Z,100931.84
2022-12-05T20:07:02.232Z,100951.16
2022-12-05T20:09:29.827Z,100911.56
2022-12-05T20:12:04.182Z,100928.91
2022-12-05T20:14:41.299Z,100974.91
2022-12-05T20:17:12.923Z,100941.22
2022-12-05T20:19:40.050Z,100964.66
2022-12-05T20:22:07.472Z,100953.03
2022-12-05T20:24:43.615Z,100927.63
2022-12-05T20:27:11.106Z,100943.09
2022-12-05T20:29:47.971Z,100937.94
2022-12-05T20:32:18.316Z,100941.94
2022-12-05T20:34:55.839Z,100962.59
2022-12-05T20:37:25.222Z,100961.47
2022-12-05T20:39:56.217Z,100949.56
2022-12-05T20:42:26.129Z,100952.72
2022-12-05T20:44:53.436Z,100947.69
2022-12-05T20:47:20.543Z,100954.94
2022-12-05T20:49:47.736Z,100950.75
2022-12-05T20:52:14.942Z,100942.09
2022-12-05T20:54:45.245Z,100935.91
2022-12-05T20:57:13.280Z,100936.84
2022-12-05T20:59:43.084Z,100924.75
2022-12-05T21:02:10.561Z,100944.84
2022-12-05T21:04:40.978Z,100935.16
2022-12-05T21:07:08.021Z,100937.38
2022-12-05T21:09:38.746Z,100943.06
2022-12-05T21:12:11.646Z,100932.75
2022-12-05T21:14:39.610Z,100940.66
2022-12-05T21:17:13.898Z,100933.69
2022-12-05T21:19:40.965Z,100923.09
2022-12-05T21:22:10.002Z,100926.97
2022-12-05T21:24:40.074Z,100928.75
2022-12-05T21:27:07.420Z,100898.34
2022-12-05T21:29:34.875Z,100912.66
2022-12-05T21:32:01.898Z,100924.88
2022-12-05T21:34:28.864Z,100907.31
2022-12-05T21:36:55.896Z,100908.03
2022-12-05T21:39:22.818Z,100912.34
2022-12-05T21:41:50.927Z,100888.78
2022-12-05T21:44:20.075Z,100886.16
2022-12-05T21:46:47.158Z,100886.28
2022-12-05T21:49:14.345Z,100879.53
2022-12-05T21:51:41.317Z,100872.69
2022-12-05T21:54:08.345Z,100876.91
2022-12-05T21:56:35.245Z,100895.53
2022-12-05T21:59:02.213Z,100878.06
2022-12-05T22:01:29.327Z,100885.75
2022-12-05T22:04:01.544Z,100871.97
2022-12-05T22:06:35.212Z,100882.59
2022-12-05T22:09:02.554Z,100880.78
2022-12-05T22:11:30.127Z,100873.31
2022-12-05T22:13:57.202Z,100864.66
2022-12-05T22:16:30.662Z,100878.88
2022-12-05T22:18:59.252Z,100858.88
2022-12-05T22:21:28.026Z,100859.72
2022-12-05T22:23:55.224Z,100862.66
2022-12-05T22:26:24.610Z,100845.09
2022-12-05T22:28:53.259Z,100847.84
2022-12-05T22:31:21.052Z,100842.69
2022-12-05T22:33:48.879Z,100828.81
2022-12-05T22:36:17.742Z,100842.78
2022-12-05T22:38:47.446Z,100832.38
2022-12-05T22:41:20.277Z,100837.75
2022-12-05T22:43:48.844Z,100825.97
2022-12-05T22:46:18.449Z,100814.50
2022-12-05T22:48:47.092Z,100826.59
2022-12-05T22:51:15.517Z,100807.38
2022-12-05T22:53:42.616Z,100818.50
2022-12-05T22:56:15.889Z,100805.16
2022-12-05T22:58:43.995Z,100806.09
2022-12-05T23:01:19.895Z,100809.56
2022-12-05T23:03:48.619Z,100801.59
2022-12-05T23:06:18.186Z,100807.59
2022-12-05T23:08:48.041Z,100792.84
2022-12-05T23:11:16.664Z,100801.50
2022-12-05T23:13:44.679Z,100788.38
2022-12-05T23:16:15.022Z,100792.56
2022-12-05T23:18:49.309Z,100791.63
2022-12-05T23:21:25.452Z,100775.13
2022-12-05T23:23:55.817Z,100781.00
2022-12-05T23:26:24.937Z,100781.94
2022-12-05T23:28:52.478Z,100768.06
2022-12-05T23:31:19.732Z,100772.59
2022-12-05T23:33:50.723Z,100777.63
2022-12-05T23:36:19.056Z,100765.34
2022-12-05T23:38:47.074Z,100765.22
2022-12-05T23:41:17.770Z,100773.84
2022-12-05T23:43:45.445Z,100752.69
2022-12-05T23:46:15.417Z,100777.41
2022-12-05T23:48:45.968Z,100762.59
2022-12-05T23:51:18.178Z,100769.44
2022-12-05T23:53:47.453Z,100779.09
2022-12-05T23:56:18.331Z,100767.75
2022-12-05T23:58:45.815Z,100763.66
